Time;durP1;ratioP1;P1;durP2;ratioP2;P2;SDS_P1;SDS_P2;PMS_P1;PMS_P2;Temp;Humidity;BMP_temperature;BMP_pressure;BME280_temperature;BME280_humidity;BME280_pressure;Samples;Min_cycle;Max_cycle;Signal;HPM_P1;HPM_P2
2022/11/05 00:09:55;;;;;;;1.70;1.65;;;13.90;99.90;;;;;;5045797;28;20446;-79
2022/11/05 00:17:54;;;;;;;0.20;0.20;;;13.90;99.90;;;;;;5042592;28;20049;-85
2022/11/05 00:20:20;;;;;;;0.10;0.10;;;13.90;99.90;;;;;;5040344;28;20037;-90
2022/11/05 00:25:29;;;;;;;;;;;13.80;99.90;;;;;;5040392;28;20075;-84
2022/11/05 00:28:00;;;;;;;0.10;0.10;;;13.70;99.90;;;;;;5039814;28;19905;-82
2022/11/05 00:30:27;;;;;;;0.10;0.10;;;13.60;99.90;;;;;;5039661;28;20021;-84
2022/11/05 00:33:00;;;;;;;0.15;0.15;;;13.60;99.90;;;;;;5039451;28;20024;-86
2022/11/05 00:35:26;;;;;;;0.20;0.20;;;13.50;99.90;;;;;;5040298;28;20028;-80
2022/11/05 00:37:53;;;;;;;0.20;0.20;;;13.60;99.90;;;;;;5038406;28;20033;-81
2022/11/05 00:40:18;;;;;;;0.20;0.20;;;13.50;99.90;;;;;;5039695;28;20049;-90
2022/11/05 00:45:29;;;;;;;0.10;0.10;;;13.50;99.90;;;;;;5039286;28;20083;-79
2022/11/05 00:50:39;;;;;;;1.85;1.75;;;13.40;99.90;;;;;;5039580;28;20079;-83
2022/11/05 00:53:06;;;;;;;3.53;2.60;;;13.40;99.90;;;;;;5038946;28;20009;-83
2022/11/05 00:55:40;;;;;;;0.63;0.63;;;13.40;99.90;;;;;;5039275;28;20082;-86
2022/11/05 00:58:10;;;;;;;0.10;0.10;;;13.40;99.90;;;;;;5021193;28;20463;-85
2022/11/05 01:00:38;;;;;;;0.17;0.17;;;13.40;99.90;;;;;;5039280;28;20021;-89
2022/11/05 01:03:07;;;;;;;0.20;0.20;;;13.40;99.90;;;;;;5020823;28;20029;-91
2022/11/05 01:05:46;;;;;;;1.10;1.10;;;13.40;99.90;;;;;;5020819;28;20102;-80
2022/11/05 01:08:14;;;;;;;1.20;1.20;;;13.40;99.90;;;;;;5038910;28;20534;-85
2022/11/05 01:10:44;;;;;;;0.15;0.15;;;13.30;99.90;;;;;;5020923;28;20123;-84
2022/11/05 01:13:11;;;;;;;7.85;7.13;;;13.30;99.90;;;;;;5038517;28;20059;-81
2022/11/05 01:15:37;;;;;;;0.60;0.60;;;13.20;99.90;;;;;;5038807;28;20047;-87
2022/11/05 01:18:04;;;;;;;0.20;0.20;;;13.20;99.90;;;;;;5020241;28;20058;-81
2022/11/05 01:20:30;;;;;;;0.20;0.20;;;13.30;99.90;;;;;;5038685;28;20491;-83
2022/11/05 01:22:57;;;;;;;0.40;0.40;;;13.20;99.90;;;;;;5039081;28;20061;-81
2022/11/05 01:25:23;;;;;;;0.20;0.20;;;13.30;99.90;;;;;;5039326;28;20018;-80
2022/11/05 01:27:48;;;;;;;0.20;0.20;;;13.20;99.90;;;;;;5038788;28;20109;-82
2022/11/05 01:30:14;;;;;;;0.10;0.10;;;13.10;99.90;;;;;;5040135;28;20104;-85
2022/11/05 01:32:43;;;;;;;0.20;0.20;;;12.90;99.90;;;;;;5042709;28;20083;-79
2022/11/05 01:35:17;;;;;;;0.90;0.90;;;12.80;99.90;;;;;;5071342;28;20046;-79
2022/11/05 01:37:44;;;;;;;0.65;0.63;;;12.70;99.90;;;;;;5067200;28;20029;-78
2022/11/05 01:40:13;;;;;;;11.93;9.70;;;12.70;99.90;;;;;;5051065;28;20419;-79
2022/11/05 01:42:39;;;;;;;0.38;0.38;;;12.50;99.90;;;;;;5047793;28;20017;-78
2022/11/05 01:45:24;;;;;;;0.20;0.20;;;12.50;99.90;;;;;;5054837;28;20044;-77
2022/11/05 01:47:53;;;;;;;2.42;2.33;;;12.50;99.90;;;;;;5074793;28;20013;-77
2022/11/05 01:50:29;;;;;;;2.08;1.98;;;12.50;99.90;;;;;;5072440;28;20077;-77
2022/11/05 01:53:01;;;;;;;0.10;0.10;;;12.50;99.90;;;;;;5055404;28;20025;-77
2022/11/05 01:55:29;;;;;;;0.10;0.10;;;12.50;99.90;;;;;;5094801;22;20043;-78
2022/11/05 01:57:57;;;;;;;0.10;0.10;;;12.40;99.90;;;;;;5095827;28;20012;-77
2022/11/05 02:00:23;;;;;;;2.35;2.25;;;11.70;99.90;;;;;;5095766;28;20013;-77
2022/11/05 02:02:49;;;;;;;0.10;0.10;;;12.50;99.90;;;;;;5076913;28;20013;-77
2022/11/05 02:05:16;;;;;;;0.13;0.13;;;12.40;99.90;;;;;;5075290;28;20035;-78
2022/11/05 02:07:44;;;;;;;0.30;0.30;;;12.40;99.90;;;;;;5077022;28;20055;-77
2022/11/05 02:10:16;;;;;;;0.20;0.20;;;12.30;99.90;;;;;;5097019;28;20015;-76
2022/11/05 02:12:46;;;;;;;0.20;0.20;;;12.30;99.90;;;;;;5095579;28;20028;-76
2022/11/05 02:15:15;;;;;;;0.20;0.20;;;12.30;99.90;;;;;;5096035;28;20030;-78
2022/11/05 02:18:02;;;;;;;0.20;0.20;;;12.30;99.90;;;;;;5091921;28;20058;-77
2022/11/05 02:20:42;;;;;;;0.20;0.20;;;12.30;99.90;;;;;;5077248;28;20035;-78
2022/11/05 02:23:35;;;;;;;0.10;0.10;;;12.30;99.90;;;;;;5093293;28;20009;-77
2022/11/05 02:26:38;;;;;;;0.10;0.10;;;12.30;99.90;;;;;;5096666;28;20038;-76
2022/11/05 02:29:40;;;;;;;0.13;0.13;;;12.30;99.90;;;;;;5095396;28;20020;-80
2022/11/05 02:32:06;;;;;;;0.20;0.20;;;12.20;99.90;;;;;;5092524;28;20043;-78
2022/11/05 02:34:40;;;;;;;5.95;5.57;;;12.20;99.90;;;;;;5096953;28;20020;-77
2022/11/05 02:37:33;;;;;;;0.15;0.15;;;12.20;99.90;;;;;;5093910;28;20332;-79
2022/11/05 02:40:44;;;;;;;0.10;0.10;;;11.70;99.90;;;;;;5097244;28;20007;-79
2022/11/05 02:43:44;;;;;;;0.20;0.20;;;12.20;99.90;;;;;;5019431;28;20038;-78
2022/11/05 02:46:28;;;;;;;0.20;0.20;;;12.20;99.90;;;;;;5018308;28;20021;-78
2022/11/05 02:49:34;;;;;;;0.20;0.20;;;12.20;99.90;;;;;;5018028;28;20030;-77
2022/11/05 02:52:15;;;;;;;0.20;0.20;;;12.10;99.90;;;;;;5018528;28;20018;-79
2022/11/05 02:55:16;;;;;;;0.20;0.20;;;12.10;99.90;;;;;;5018831;28;20018;-79
2022/11/05 02:58:05;;;;;;;0.10;0.10;;;12.10;99.90;;;;;;5018180;28;20019;-77
2022/11/05 03:00:39;;;;;;;0.10;0.10;;;12.00;99.90;;;;;;5012930;28;20046;-76
2022/11/05 03:03:31;;;;;;;0.75;0.73;;;12.00;99.90;;;;;;5018075;28;20042;-76
2022/11/05 03:06:34;;;;;;;0.10;0.10;;;12.00;99.90;;;;;;5015718;28;20113;-77
2022/11/05 03:09:24;;;;;;;0.20;0.20;;;12.00;99.90;;;;;;5001235;28;20037;-76
2022/11/05 03:12:27;;;;;;;0.10;0.10;;;12.10;99.90;;;;;;5016662;28;20014;-76
2022/11/05 03:15:19;;;;;;;0.10;0.10;;;12.10;99.90;;;;;;5001665;28;20034;-77
2022/11/05 03:18:11;;;;;;;0.10;0.10;;;12.10;99.90;;;;;;4996579;28;20030;-76
2022/11/05 03:21:05;;;;;;;0.40;0.40;;;12.00;99.90;;;;;;4986248;28;20043;-77
2022/11/05 03:23:36;;;;;;;0.20;0.20;;;12.10;99.90;;;;;;4979743;28;20034;-77
2022/11/05 03:26:37;;;;;;;0.20;0.20;;;12.10;99.90;;;;;;4998362;28;20049;-76
2022/11/05 03:29:49;;;;;;;0.20;0.20;;;12.00;99.90;;;;;;4980683;28;20042;-76
2022/11/05 03:32:17;;;;;;;0.20;0.20;;;12.00;99.90;;;;;;4996710;28;20050;-76
2022/11/05 03:34:50;;;;;;;0.20;0.20;;;12.00;99.90;;;;;;4995311;28;20077;-77
2022/11/05 03:37:37;;;;;;;4.63;4.32;;;12.10;99.90;;;;;;4995661;28;20038;-77
2022/11/05 03:40:12;;;;;;;0.10;0.10;;;12.00;99.90;;;;;;4997352;28;20062;-77
2022/11/05 03:42:42;;;;;;;0.20;0.20;;;11.90;99.90;;;;;;4997488;28;20039;-76
2022/11/05 03:45:15;;;;;;;0.17;0.17;;;11.90;99.90;;;;;;5059168;22;20035;-76
2022/11/05 03:47:44;;;;;;;0.17;0.17;;;11.80;99.90;;;;;;5079842;28;20029;-77
2022/11/05 03:50:36;;;;;;;0.20;0.20;;;11.70;99.90;;;;;;5097029;28;20027;-76
2022/11/05 03:53:31;;;;;;;0.20;0.20;;;11.70;99.90;;;;;;5097627;28;20019;-77
2022/11/05 03:56:02;;;;;;;0.40;0.40;;;11.70;99.90;;;;;;5097216;28;20035;-76
2022/11/05 04:01:03;;;;;;;0.20;0.20;;;11.40;99.90;;;;;;4303305;26;20032;-75
2022/11/05 04:03:38;;;;;;;0.20;0.20;;;11.40;99.90;;;;;;5076849;28;20049;-76
2022/11/05 04:14:39;;;;;;;0.10;0.10;;;11.20;99.90;;;;;;5076079;28;20051;-76
2022/11/05 04:17:05;;;;;;;0.20;0.20;;;11.20;99.90;;;;;;5076298;28;20006;-75
2022/11/05 04:25:21;;;;;;;0.10;0.10;;;11.30;99.90;;;;;;5076282;28;20048;-77
2022/11/05 04:27:48;;;;;;;0.20;0.20;;;11.30;99.90;;;;;;5059509;28;20047;-78
2022/11/05 04:30:18;;;;;;;0.10;0.10;;;11.20;99.90;;;;;;5058998;28;20069;-77
2022/11/05 04:33:23;;;;;;;0.10;0.10;;;11.30;99.90;;;;;;5075475;28;20017;-76
2022/11/05 04:35:49;;;;;;;0.20;0.20;;;11.30;99.90;;;;;;5075884;28;20013;-76
2022/11/05 04:38:19;;;;;;;0.20;0.20;;;11.20;99.90;;;;;;5075005;28;20065;-76
2022/11/05 04:41:28;;;;;;;0.20;0.20;;;11.30;99.90;;;;;;5075145;28;20017;-76
2022/11/05 04:44:15;;;;;;;0.20;0.20;;;12.10;99.90;;;;;;5083537;28;20047;-77
2022/11/05 04:46:41;;;;;;;0.10;0.10;;;11.30;99.90;;;;;;5091488;28;20039;-76
2022/11/05 04:49:10;;;;;;;0.20;0.20;;;11.30;99.90;;;;;;5094467;28;20032;-75
2022/11/05 04:51:35;;;;;;;0.10;0.10;;;11.20;99.90;;;;;;5097112;28;20024;-76
2022/11/05 04:54:09;;;;;;;0.10;0.10;;;11.10;99.90;;;;;;5095440;28;20328;-76
2022/11/05 04:56:38;;;;;;;0.20;0.20;;;11.20;99.90;;;;;;5096066;28;20051;-76
2022/11/05 04:59:04;;;;;;;0.20;0.20;;;11.20;99.90;;;;;;5096267;28;20021;-76
2022/11/05 05:01:30;;;;;;;0.20;0.20;;;11.20;99.90;;;;;;5094932;28;20052;-79
2022/11/05 05:04:24;;;;;;;2.00;1.98;;;11.10;99.90;;;;;;5096796;28;20027;-76
2022/11/05 05:06:52;;;;;;;;;;;11.10;99.90;;;;;;5094898;28;20005;-76
2022/11/05 05:09:39;;;;;;;0.10;0.10;;;11.00;99.90;;;;;;5096412;28;19892;-74
2022/11/05 05:12:05;;;;;;;0.10;0.10;;;11.10;99.90;;;;;;5093269;28;20025;-77
2022/11/05 05:14:33;;;;;;;0.10;0.10;;;11.10;99.90;;;;;;5096338;28;20024;-73
2022/11/05 05:16:59;;;;;;;0.20;0.20;;;11.00;99.90;;;;;;5096601;28;20091;-78
2022/11/05 05:19:25;;;;;;;0.20;0.20;;;11.00;99.90;;;;;;5096328;28;20004;-76
2022/11/05 05:21:51;;;;;;;0.40;0.40;;;10.90;99.90;;;;;;5094975;28;20040;-75
2022/11/05 05:24:43;;;;;;;0.10;0.10;;;10.80;99.90;;;;;;5096271;28;20008;-76
2022/11/05 05:27:10;;;;;;;0.10;0.10;;;10.70;99.90;;;;;;5094932;28;20009;-76
2022/11/05 05:29:39;;;;;;;0.10;0.10;;;10.80;99.90;;;;;;5093652;28;20032;-75
2022/11/05 05:32:05;;;;;;;0.10;0.10;;;10.70;99.90;;;;;;5099445;28;20016;-76
2022/11/05 05:34:31;;;;;;;0.10;0.10;;;10.70;99.90;;;;;;5100763;28;20039;-76
2022/11/05 05:36:56;;;;;;;0.10;0.10;;;10.70;99.90;;;;;;5095781;28;20024;-76
2022/11/05 05:39:30;;;;;;;0.10;0.10;;;10.60;99.90;;;;;;5101494;28;20012;-75
2022/11/05 05:41:56;;;;;;;0.10;0.10;;;10.60;99.90;;;;;;5101356;28;20013;-75
2022/11/05 05:44:22;;;;;;;0.20;0.20;;;10.60;99.90;;;;;;5099823;28;20027;-75
2022/11/05 05:46:47;;;;;;;0.10;0.10;;;10.60;99.90;;;;;;5099876;28;20033;-75
2022/11/05 05:49:13;;;;;;;0.20;0.20;;;10.60;99.90;;;;;;5098786;28;20061;-76
2022/11/05 05:51:59;;;;;;;0.20;0.20;;;10.50;99.90;;;;;;5098235;28;20005;-75
2022/11/05 05:54:29;;;;;;;0.10;0.10;;;10.50;99.90;;;;;;5099749;28;20016;-75
2022/11/05 05:57:14;;;;;;;0.20;0.20;;;10.50;99.90;;;;;;5097780;28;20044;-75
2022/11/05 06:00:02;;;;;;;0.10;0.10;;;10.60;99.90;;;;;;5097318;28;20053;-76
2022/11/05 06:02:30;;;;;;;0.10;0.10;;;10.60;99.90;;;;;;5109070;22;20060;-76
2022/11/05 06:04:56;;;;;;;0.10;0.10;;;10.60;99.90;;;;;;5096617;28;20047;-75
2022/11/05 06:07:22;;;;;;;0.10;0.10;;;10.60;99.90;;;;;;5080801;28;20033;-75
2022/11/05 06:09:47;;;;;;;0.15;0.15;;;10.60;99.90;;;;;;5081525;28;20017;-76
2022/11/05 06:12:13;;;;;;;0.20;0.20;;;10.60;99.90;;;;;;5095622;28;20037;-75
2022/11/05 06:14:42;;;;;;;0.10;0.10;;;10.60;99.90;;;;;;5098877;28;20025;-76
2022/11/05 06:17:09;;;;;;;0.20;0.20;;;10.60;99.90;;;;;;5098448;28;20033;-78
2022/11/05 06:19:54;;;;;;;0.10;0.10;;;10.60;99.90;;;;;;5098873;28;20016;-76
2022/11/05 06:22:40;;;;;;;0.20;0.20;;;10.70;99.90;;;;;;5074103;28;20054;-76
2022/11/05 06:25:06;;;;;;;0.05;0.05;;;10.70;99.90;;;;;;5095936;28;20008;-76
2022/11/05 06:27:32;;;;;;;0.43;0.43;;;10.70;99.90;;;;;;5080753;28;20013;-75
2022/11/05 06:29:58;;;;;;;0.15;0.15;;;10.70;99.90;;;;;;5097879;28;20072;-76
2022/11/05 06:32:23;;;;;;;0.20;0.20;;;10.80;99.90;;;;;;5097370;28;20052;-76
2022/11/05 06:34:49;;;;;;;0.20;0.20;;;10.80;99.90;;;;;;5094846;28;20068;-75
2022/11/05 06:37:18;;;;;;;0.10;0.10;;;10.70;99.90;;;;;;5096396;28;20028;-74
2022/11/05 06:39:52;;;;;;;0.10;0.10;;;11.40;99.90;;;;;;5094384;28;20029;-77
2022/11/05 06:42:20;;;;;;;1.98;1.85;;;10.70;99.90;;;;;;5076324;28;20033;-76
2022/11/05 06:44:52;;;;;;;0.10;0.10;;;10.70;99.90;;;;;;5094498;28;20028;-76
2022/11/05 06:47:18;;;;;;;0.20;0.20;;;10.70;99.90;;;;;;5091128;28;20059;-77
2022/11/05 06:49:45;;;;;;;0.10;0.10;;;10.80;99.90;;;;;;5090630;28;20333;-76
2022/11/05 06:52:11;;;;;;;0.43;0.43;;;10.80;99.90;;;;;;5088830;28;20020;-75
2022/11/05 06:54:51;;;;;;;0.20;0.20;;;10.90;99.90;;;;;;5096128;28;20097;-77
2022/11/05 06:57:17;;;;;;;0.10;0.10;;;11.00;99.90;;;;;;5097303;28;20057;-76
2022/11/05 06:59:42;;;;;;;0.20;0.20;;;11.10;99.90;;;;;;5095117;28;20205;-75
2022/11/05 07:02:12;;;;;;;1.38;1.33;;;11.10;99.90;;;;;;5097352;28;20008;-76
2022/11/05 07:04:38;;;;;;;0.20;0.20;;;11.00;99.90;;;;;;5096597;28;20116;-76
2022/11/05 07:09:51;;;;;;;0.10;0.10;;;11.20;99.90;;;;;;5097991;22;20090;-76
2022/11/05 07:12:16;;;;;;;0.10;0.10;;;11.20;99.90;;;;;;5075643;28;20092;-77
2022/11/05 07:14:42;;;;;;;0.20;0.20;;;11.10;99.90;;;;;;5074424;28;20059;-76
2022/11/05 07:17:08;;;;;;;0.25;0.25;;;11.20;99.90;;;;;;5077237;28;20039;-77
2022/11/05 07:19:34;;;;;;;0.10;0.10;;;11.20;99.90;;;;;;5096497;28;20021;-77
2022/11/05 07:22:00;;;;;;;0.20;0.20;;;11.30;99.90;;;;;;5097063;28;20012;-75
2022/11/05 07:24:28;;;;;;;0.20;0.20;;;11.20;99.90;;;;;;5094380;28;20056;-76
2022/11/05 07:27:01;;;;;;;0.10;0.10;;;11.20;99.90;;;;;;5093437;28;20064;-76
2022/11/05 07:29:27;;;;;;;0.15;0.15;;;11.20;99.90;;;;;;5093146;28;20043;-76
2022/11/05 07:31:59;;;;;;;0.20;0.20;;;11.20;99.90;;;;;;5089759;28;20005;-77
2022/11/05 07:34:30;;;;;;;0.20;0.20;;;11.20;99.90;;;;;;5083394;28;20213;-77
2022/11/05 07:36:56;;;;;;;0.10;0.10;;;10.10;99.90;;;;;;5084209;28;20020;-77
2022/11/05 07:39:24;;;;;;;0.20;0.20;;;11.30;99.90;;;;;;5082937;28;20028;-76
2022/11/05 07:41:56;;;;;;;0.20;0.20;;;11.30;99.90;;;;;;5079740;28;20055;-77
2022/11/05 07:44:24;;;;;;;0.20;0.20;;;11.30;99.90;;;;;;5083225;28;20016;-78
2022/11/05 07:46:51;;;;;;;0.10;0.10;;;11.30;99.90;;;;;;5084770;28;20025;-77
2022/11/05 07:49:17;;;;;;;0.10;0.10;;;11.30;99.90;;;;;;5079054;28;20074;-76
2022/11/05 07:51:43;;;;;;;0.20;0.20;;;11.30;99.90;;;;;;5082441;28;20050;-76
2022/11/05 07:54:13;;;;;;;0.20;0.20;;;11.20;99.90;;;;;;5068093;28;20021;-76
2022/11/05 07:56:42;;;;;;;0.75;0.75;;;11.30;99.90;;;;;;5081952;28;20028;-80
2022/11/05 07:59:07;;;;;;;0.20;0.20;;;11.20;99.90;;;;;;5085516;28;20022;-75
2022/11/05 08:01:36;;;;;;;0.17;0.17;;;11.20;99.90;;;;;;5087305;28;20028;-77
2022/11/05 08:04:06;;;;;;;0.17;0.17;;;11.20;99.90;;;;;;5089359;28;20005;-76
2022/11/05 08:06:31;;;;;;;0.10;0.10;;;11.30;99.90;;;;;;5088706;28;20055;-82
2022/11/05 08:08:57;;;;;;;0.20;0.20;;;11.10;99.90;;;;;;5089215;28;20053;-76
2022/11/05 08:11:23;;;;;;;0.20;0.20;;;11.10;99.90;;;;;;5090820;28;20007;-76
2022/11/05 08:13:48;;;;;;;0.20;0.20;;;11.20;99.90;;;;;;5088962;28;20483;-75
2022/11/05 08:16:34;;;;;;;0.10;0.10;;;11.10;99.90;;;;;;5089728;28;20017;-77
2022/11/05 08:19:00;;;;;;;0.17;0.17;;;11.20;99.90;;;;;;5087619;28;20052;-75
2022/11/05 08:21:42;;;;;;;0.10;0.10;;;11.10;99.90;;;;;;5084705;28;20039;-75
2022/11/05 08:24:08;;;;;;;0.10;0.10;;;11.20;99.90;;;;;;5062046;28;20233;-75
2022/11/05 08:26:33;;;;;;;0.20;0.20;;;11.20;99.90;;;;;;5078340;28;20032;-75
2022/11/05 08:28:59;;;;;;;0.20;0.20;;;11.20;99.90;;;;;;5086816;28;20017;-75
2022/11/05 08:31:26;;;;;;;0.20;0.20;;;11.10;99.90;;;;;;5082804;28;20036;-76
2022/11/05 08:33:52;;;;;;;2.13;2.05;;;11.10;99.90;;;;;;5063695;28;20021;-76
2022/11/05 08:36:18;;;;;;;0.10;0.10;;;11.20;99.90;;;;;;5080572;28;20017;-76
2022/11/05 08:38:54;;;;;;;0.20;0.20;;;11.20;99.90;;;;;;5083186;28;20088;-76
2022/11/05 08:41:22;;;;;;;0.20;0.20;;;11.30;99.90;;;;;;5089079;28;20012;-77
2022/11/05 08:43:48;;;;;;;0.25;0.25;;;11.30;99.90;;;;;;5090390;28;20027;-76
2022/11/05 08:46:16;;;;;;;0.35;0.35;;;11.30;99.90;;;;;;5088429;28;20020;-76
2022/11/05 08:48:44;;;;;;;0.20;0.20;;;11.30;99.90;;;;;;5075283;28;20027;-77
2022/11/05 08:51:10;;;;;;;0.20;0.20;;;11.40;99.90;;;;;;5088028;28;20058;-75
2022/11/05 08:53:36;;;;;;;0.77;0.77;;;11.40;99.90;;;;;;5067204;28;20020;-76
2022/11/05 08:56:04;;;;;;;3.28;3.05;;;11.50;99.90;;;;;;5082851;28;20024;-76
2022/11/05 08:58:35;;;;;;;0.10;0.10;;;11.30;99.90;;;;;;5084287;28;20023;-76
2022/11/05 09:01:07;;;;;;;0.20;0.20;;;11.50;99.90;;;;;;5089611;28;20028;-76
2022/11/05 09:03:32;;;;;;;0.20;0.20;;;11.40;99.90;;;;;;5088733;28;20043;-76
2022/11/05 09:05:58;;;;;;;0.20;0.20;;;11.30;99.90;;;;;;5090089;28;20080;-75
2022/11/05 09:08:36;;;;;;;0.20;0.20;;;11.30;99.90;;;;;;5091731;28;20028;-75
2022/11/05 09:11:02;;;;;;;2.95;2.85;;;11.30;99.90;;;;;;5092696;28;20008;-77
2022/11/05 09:13:32;;;;;;;11.70;10.52;;;11.30;99.90;;;;;;5074061;28;20086;-77
2022/11/05 09:16:01;;;;;;;0.20;0.20;;;11.30;99.90;;;;;;5090372;28;20076;-78
2022/11/05 09:18:27;;;;;;;0.20;0.20;;;11.30;99.90;;;;;;5070867;28;20009;-76
2022/11/05 09:20:58;;;;;;;0.10;0.10;;;11.30;99.90;;;;;;5070464;28;20012;-80
2022/11/05 09:23:45;;;;;;;0.45;0.45;;;11.30;99.90;;;;;;5090942;28;20051;-75
2022/11/05 09:26:33;;;;;;;0.80;0.80;;;11.30;99.90;;;;;;5076177;28;20104;-76
2022/11/05 09:29:00;;;;;;;0.10;0.10;;;11.30;99.90;;;;;;5096407;28;20005;-77
2022/11/05 09:31:26;;;;;;;0.20;0.20;;;11.30;99.90;;;;;;5090123;28;20033;-76
2022/11/05 09:33:52;;;;;;;0.17;0.17;;;11.30;99.90;;;;;;5086258;28;20103;-75
2022/11/05 09:36:18;;;;;;;0.20;0.20;;;11.30;99.90;;;;;;5083085;28;20012;-77
2022/11/05 09:38:46;;;;;;;0.20;0.20;;;11.30;99.90;;;;;;5091902;28;20079;-75
2022/11/05 09:41:42;;;;;;;0.10;0.10;;;11.10;99.90;;;;;;5092515;28;20016;-75
2022/11/05 09:44:33;;;;;;;0.17;0.17;;;11.10;99.90;;;;;;5061850;28;20087;-75
2022/11/05 09:47:10;;;;;;;0.10;0.10;;;10.90;99.90;;;;;;5064151;28;20033;-75
2022/11/05 09:49:43;;;;;;;0.13;0.13;;;10.80;99.90;;;;;;5080024;28;20005;-74
2022/11/05 09:52:22;;;;;;;0.20;0.20;;;10.70;99.90;;;;;;5075294;28;20020;-75
2022/11/05 09:54:49;;;;;;;0.20;0.20;;;10.60;99.90;;;;;;5086338;28;20017;-77
2022/11/05 09:57:24;;;;;;;0.20;0.20;;;10.60;99.90;;;;;;5065824;28;20016;-76
2022/11/05 10:00:01;;;;;;;0.10;0.10;;;10.50;99.90;;;;;;5082305;28;20031;-75
2022/11/05 10:02:32;;;;;;;0.20;0.20;;;10.60;99.90;;;;;;5070303;28;20017;-75
2022/11/05 10:05:02;;;;;;;0.20;0.20;;;10.50;99.90;;;;;;5085568;28;20025;-75
2022/11/05 10:07:34;;;;;;;0.10;0.10;;;10.50;99.90;;;;;;5087418;28;20039;-76
2022/11/05 10:10:10;;;;;;;0.17;0.17;;;10.90;99.90;;;;;;5092362;28;20029;-76
2022/11/05 10:12:48;;;;;;;0.10;0.10;;;10.80;99.90;;;;;;5093827;28;20027;-76
2022/11/05 10:15:25;;;;;;;0.10;0.10;;;10.70;99.90;;;;;;5093483;28;20032;-75
2022/11/05 10:18:03;;;;;;;0.10;0.10;;;10.70;99.90;;;;;;5074438;28;20035;-75
2022/11/05 10:20:35;;;;;;;0.25;0.25;;;10.70;99.90;;;;;;5083387;28;20040;-75
2022/11/05 10:23:09;;;;;;;0.10;0.10;;;10.70;99.90;;;;;;5080246;28;20021;-76
2022/11/05 10:25:40;;;;;;;0.10;0.10;;;10.50;99.90;;;;;;5082964;28;20090;-75
2022/11/05 10:28:11;;;;;;;0.20;0.20;;;10.50;99.90;;;;;;5080798;28;20705;-76
2022/11/05 10:30:52;;;;;;;0.30;0.30;;;10.50;99.90;;;;;;5083990;28;20043;-75
2022/11/05 10:33:49;;;;;;;0.10;0.10;;;10.40;99.90;;;;;;5086580;28;20016;-76
2022/11/05 10:36:34;;;;;;;0.10;0.10;;;10.20;99.90;;;;;;5003865;28;20038;-76
2022/11/05 10:39:35;;;;;;;0.20;0.20;;;10.00;99.90;;;;;;5004757;28;20007;-75
2022/11/05 10:42:33;;;;;;;0.13;0.13;;;9.90;99.90;;;;;;4965245;29;20065;-75
2022/11/05 10:45:28;;;;;;;0.20;0.20;;;9.80;99.90;;;;;;4943824;29;20039;-76
2022/11/05 10:48:18;;;;;;;0.10;0.10;;;9.60;99.90;;;;;;4938303;29;20095;-74
2022/11/05 10:50:48;;;;;;;0.10;0.10;;;9.70;99.90;;;;;;4945497;29;20046;-75
2022/11/05 10:53:25;;;;;;;0.10;0.10;;;9.60;99.90;;;;;;4948686;28;20047;-74
2022/11/05 10:55:53;;;;;;;0.10;0.10;;;9.70;99.90;;;;;;4951484;29;20087;-74
2022/11/05 10:59:03;;;;;;;0.10;0.10;;;9.70;99.90;;;;;;4951221;29;20034;-76
2022/11/05 11:01:32;;;;;;;1.10;1.10;;;9.70;99.90;;;;;;4929096;29;20074;-73
2022/11/05 11:04:21;;;;;;;0.10;0.10;;;9.60;99.90;;;;;;4901183;29;20088;-75
2022/11/05 11:06:53;;;;;;;0.20;0.20;;;9.60;99.90;;;;;;4934293;29;20036;-75
2022/11/05 11:09:30;;;;;;;1.38;1.38;;;9.50;99.90;;;;;;4948337;29;20082;-75
2022/11/05 11:12:48;;;;;;;0.10;0.10;;;9.50;99.90;;;;;;4971177;28;20055;-75
2022/11/05 11:15:20;;;;;;;0.00;0.00;;;9.30;99.90;;;;;;5010990;28;20049;-75
2022/11/05 11:17:46;;;;;;;0.00;0.00;;;9.40;99.90;;;;;;5014844;28;20527;-74
2022/11/05 11:20:27;;;;;;;0.05;0.05;;;9.40;99.90;;;;;;5016042;28;20042;-75
2022/11/05 11:23:15;;;;;;;0.10;0.10;;;9.50;99.90;;;;;;4996005;28;20030;-74
2022/11/05 11:25:51;;;;;;;0.00;0.00;;;9.40;99.90;;;;;;4995741;28;20034;-76
2022/11/05 11:29:03;;;;;;;0.10;0.10;;;9.30;99.90;;;;;;5005585;28;20152;-75
2022/11/05 11:31:30;;;;;;;0.08;0.08;;;9.40;99.90;;;;;;4997371;28;20035;-75
2022/11/05 11:34:06;;;;;;;0.10;0.10;;;9.30;99.90;;;;;;5007422;28;20090;-75
2022/11/05 11:36:40;;;;;;;7.90;7.57;;;9.40;99.90;;;;;;5011041;28;20042;-75
2022/11/05 11:39:30;;;;;;;0.10;0.10;;;9.50;99.90;;;;;;5018406;28;20102;-74
2022/11/05 11:42:00;;;;;;;0.10;0.10;;;9.50;99.90;;;;;;5069970;23;20048;-73
2022/11/05 11:44:47;;;;;;;0.00;0.00;;;9.50;99.90;;;;;;5104502;23;20035;-77
2022/11/05 11:47:17;;;;;;;0.10;0.10;;;9.50;99.90;;;;;;5098876;28;20065;-75
2022/11/05 11:50:31;;;;;;;2.65;2.45;;;9.50;99.90;;;;;;5094755;28;20025;-74
2022/11/05 11:53:20;;;;;;;0.05;0.05;;;9.50;99.90;;;;;;5098084;28;20028;-76
2022/11/05 11:55:57;;;;;;;0.10;0.10;;;9.50;99.90;;;;;;5017587;28;20050;-75
2022/11/05 11:58:38;;;;;;;0.10;0.10;;;9.40;99.90;;;;;;5083784;22;20032;-75
2022/11/05 12:01:32;;;;;;;0.10;0.10;;;9.40;99.90;;;;;;5070257;28;20540;-75
2022/11/05 12:04:10;;;;;;;0.10;0.10;;;9.30;99.90;;;;;;5087931;28;20037;-75
2022/11/05 12:06:45;;;;;;;0.10;0.10;;;9.20;99.90;;;;;;5086220;28;20051;-75
2022/11/05 12:09:16;;;;;;;0.10;0.10;;;9.20;99.90;;;;;;5068477;28;20043;-74
2022/11/05 12:12:06;;;;;;;0.10;0.10;;;9.10;99.90;;;;;;5075756;28;20096;-75
2022/11/05 12:14:56;;;;;;;0.10;0.10;;;7.40;99.90;;;;;;5067779;28;20053;-75
2022/11/05 12:17:40;;;;;;;0.10;0.10;;;9.10;99.90;;;;;;5088415;28;20072;-74
2022/11/05 12:20:43;;;;;;;0.10;0.10;;;9.10;99.90;;;;;;5097128;28;20019;-75
2022/11/05 12:23:27;;;;;;;0.00;0.00;;;9.10;99.90;;;;;;5096813;28;20044;-76
2022/11/05 12:26:10;;;;;;;0.10;0.10;;;10.80;99.90;;;;;;5096058;28;20005;-76
2022/11/05 12:29:11;;;;;;;0.10;0.10;;;9.10;99.90;;;;;;5084348;28;20039;-76
2022/11/05 12:32:44;;;;;;;0.08;0.08;;;12.40;99.90;;;;;;5086310;28;20045;-76
2022/11/05 12:35:22;;;;;;;0.10;0.10;;;9.10;99.90;;;;;;4972669;29;20007;-76
2022/11/05 12:38:12;;;;;;;0.10;0.10;;;9.10;99.90;;;;;;4969239;29;20039;-76
2022/11/05 12:40:50;;;;;;;0.10;0.10;;;9.10;99.90;;;;;;4967623;28;20039;-76
2022/11/05 12:43:46;;;;;;;0.10;0.10;;;9.10;99.90;;;;;;4968259;29;20042;-76
2022/11/05 12:46:36;;;;;;;0.10;0.10;;;9.20;99.90;;;;;;4966731;29;20043;-76
2022/11/05 12:49:29;;;;;;;0.40;0.40;;;9.20;99.90;;;;;;4975041;28;20019;-78
2022/11/05 12:52:07;;;;;;;0.10;0.10;;;9.20;99.90;;;;;;4977895;28;20035;-75
2022/11/05 12:54:43;;;;;;;0.10;0.10;;;9.30;99.90;;;;;;4976894;28;20015;-76
2022/11/05 12:57:12;;;;;;;0.10;0.10;;;9.30;99.90;;;;;;4978002;28;20123;-78
2022/11/05 13:00:05;;;;;;;0.10;0.10;;;9.20;99.90;;;;;;4976406;28;20239;-76
2022/11/05 13:02:49;;;;;;;0.10;0.10;;;9.20;99.90;;;;;;4955610;29;20022;-78
2022/11/05 13:05:35;;;;;;;0.10;0.10;;;9.30;99.90;;;;;;4976779;28;20035;-78
2022/11/05 13:08:41;;;;;;;0.08;0.08;;;9.30;99.90;;;;;;4993597;28;20069;-77
2022/11/05 13:11:20;;;;;;;1.02;1.02;;;9.30;99.90;;;;;;5030165;28;20037;-77
2022/11/05 13:14:13;;;;;;;0.20;0.20;;;9.20;99.90;;;;;;5075161;28;20024;-75
2022/11/05 13:17:18;;;;;;;0.10;0.10;;;9.20;99.90;;;;;;5076083;28;20006;-75
2022/11/05 13:20:39;;;;;;;0.10;0.10;;;9.20;99.90;;;;;;4996729;28;20241;-76
2022/11/05 13:23:54;;;;;;;0.10;0.10;;;9.30;99.90;;;;;;5014469;28;20039;-77
2022/11/05 13:26:32;;;;;;;0.10;0.10;;;9.30;99.90;;;;;;5016241;28;20026;-74
2022/11/05 13:29:27;;;;;;;0.08;0.08;;;9.40;99.90;;;;;;5013669;28;20083;-76
2022/11/05 13:32:27;;;;;;;0.10;0.10;;;9.30;99.90;;;;;;5014686;28;20027;-75
2022/11/05 13:35:14;;;;;;;0.10;0.10;;;9.30;99.90;;;;;;5007925;28;20756;-75
2022/11/05 13:40:38;;;;;;;0.10;0.10;;;9.30;99.90;;;;;;5009007;28;20065;-75
2022/11/05 13:43:31;;;;;;;0.10;0.10;;;9.30;99.90;;;;;;5009864;28;20026;-75
2022/11/05 13:46:42;;;;;;;0.10;0.10;;;9.30;99.90;;;;;;5002536;28;20035;-75
2022/11/05 13:49:22;;;;;;;0.10;0.10;;;9.30;99.90;;;;;;4964098;29;20043;-76
2022/11/05 13:51:58;;;;;;;0.10;0.10;;;9.30;99.90;;;;;;5023162;28;20337;-77
2022/11/05 13:54:49;;;;;;;2.92;2.83;;;9.10;99.90;;;;;;5028947;28;20046;-77
2022/11/05 13:57:32;;;;;;;0.10;0.10;;;9.20;99.90;;;;;;5015637;28;20046;-75
2022/11/05 14:00:55;;;;;;;0.10;0.10;;;9.20;99.90;;;;;;5016865;28;20213;-77
2022/11/05 14:03:24;;;;;;;0.20;0.20;;;9.10;99.90;;;;;;4985426;28;20087;-76
2022/11/05 14:06:02;;;;;;;2.95;2.83;;;8.90;99.90;;;;;;4994737;28;20022;-73
2022/11/05 14:09:13;;;;;;;0.10;0.10;;;8.90;99.90;;;;;;4995661;28;20205;-73
2022/11/05 14:11:48;;;;;;;0.10;0.10;;;9.00;99.90;;;;;;4994930;28;20019;-76
2022/11/05 14:14:18;;;;;;;0.10;0.10;;;9.10;99.90;;;;;;4989993;28;20019;-75
2022/11/05 14:17:21;;;;;;;0.10;0.10;;;9.00;99.90;;;;;;4988873;28;20019;-75
2022/11/05 14:20:02;;;;;;;0.10;0.10;;;9.00;99.90;;;;;;4993539;28;20022;-76
2022/11/05 14:22:55;;;;;;;0.10;0.10;;;9.00;99.90;;;;;;4998367;28;20043;-75
2022/11/05 14:25:41;;;;;;;0.10;0.10;;;9.10;99.90;;;;;;4951398;28;20044;-75